createdAt,value
2018-08-23T00:01:48.704Z,7.60
2018-08-23T00:04:29.100Z,6.90
2018-08-23T00:07:04.925Z,11.25
2018-08-23T00:09:40.049Z,11.50
2018-08-23T00:12:11.694Z,10.90
2018-08-23T00:14:41.926Z,9.83
2018-08-23T00:17:18.120Z,8.50
2018-08-23T00:19:48.621Z,10.85
2018-08-23T00:25:09.998Z,11.40
2018-08-23T00:27:43.504Z,11.20
2018-08-23T00:30:15.692Z,10.43
2018-08-23T00:32:46.044Z,13.53
2018-08-23T00:35:23.108Z,9.88
2018-08-23T00:37:54.877Z,10.17
2018-08-23T00:40:26.714Z,9.37
2018-08-23T00:43:04.450Z,8.53
2018-08-23T00:45:37.110Z,10.40
2018-08-23T00:48:09.073Z,10.30
2018-08-23T00:50:59.892Z,11.50
2018-08-23T00:53:33.760Z,9.27
2018-08-23T00:56:21.248Z,10.97
2018-08-23T00:58:57.772Z,8.97
2018-08-23T01:01:30.987Z,10.57
2018-08-23T01:04:04.410Z,9.20
2018-08-23T01:06:48.743Z,10.20
2018-08-23T01:09:21.766Z,9.43
2018-08-23T01:11:55.848Z,8.80
2018-08-23T01:14:27.886Z,11.13
2018-08-23T01:17:11.990Z,10.50
2018-08-23T01:19:49.724Z,9.50
2018-08-23T01:22:22.191Z,10.97
2018-08-23T01:24:51.380Z,13.23
2018-08-23T01:27:27.903Z,9.28
2018-08-23T01:29:56.609Z,10.73
2018-08-23T01:32:32.020Z,9.30
2018-08-23T01:35:00.534Z,11.22
2018-08-23T01:37:42.960Z,11.20
2018-08-23T01:40:12.977Z,11.97
2018-08-23T01:42:45.233Z,9.93
2018-08-23T01:45:13.881Z,14.38
2018-08-23T01:47:48.159Z,11.57
2018-08-23T01:50:17.556Z,8.97
2018-08-23T01:52:48.825Z,14.53
2018-08-23T01:55:18.958Z,14.93
2018-08-23T01:57:48.667Z,14.83
2018-08-23T02:00:19.096Z,13.53
2018-08-23T02:02:48.575Z,13.20
2018-08-23T02:05:17.586Z,11.57
2018-08-23T02:07:46.507Z,11.77
2018-08-23T02:10:15.396Z,11.83
2018-08-23T02:12:51.392Z,12.23
2018-08-23T02:15:20.201Z,14.27
2018-08-23T02:17:58.929Z,10.70
2018-08-23T02:20:29.007Z,14.20
2018-08-23T02:22:58.030Z,16.17
2018-08-23T02:25:28.048Z,13.60
2018-08-23T02:27:59.944Z,13.03
2018-08-23T02:30:40.678Z,12.93
2018-08-23T02:33:11.054Z,12.90
2018-08-23T02:35:40.477Z,11.70
2018-08-23T02:38:09.959Z,15.90
2018-08-23T04:10:27.715Z,11.77
2018-08-23T04:12:59.400Z,12.07
2018-08-23T04:15:32.471Z,10.90
2018-08-23T04:18:07.365Z,13.30
2018-08-23T04:20:41.580Z,12.23
2018-08-23T04:23:14.901Z,15.13
2018-08-23T04:25:47.651Z,14.40
2018-08-23T04:28:20.452Z,12.80
2018-08-23T04:30:52.077Z,11.37
2018-08-23T04:33:22.529Z,16.95
2018-08-23T04:35:56.595Z,12.23
2018-08-23T04:38:28.882Z,12.98
2018-08-23T04:41:06.009Z,12.58
2018-08-23T04:43:38.209Z,12.90
2018-08-23T04:46:14.295Z,14.57
2018-08-23T04:48:49.531Z,17.40
2018-08-23T04:51:22.782Z,14.70
2018-08-23T04:53:54.356Z,12.07
2018-08-23T04:56:24.377Z,17.67
2018-08-23T04:58:57.348Z,15.28
2018-08-23T05:01:26.742Z,14.33
2018-08-23T05:03:57.573Z,14.15
2018-08-23T05:06:26.336Z,12.43
2018-08-23T05:09:06.257Z,11.50
2018-08-23T05:11:41.428Z,11.63
2018-08-23T05:14:14.836Z,16.70
2018-08-23T05:16:52.985Z,13.70
2018-08-23T05:19:26.108Z,13.90
2018-08-23T05:21:56.338Z,12.88
2018-08-23T05:24:25.381Z,14.35
2018-08-23T05:26:57.713Z,13.62
2018-08-23T05:29:30.545Z,11.60
2018-08-23T05:32:03.839Z,12.07
2018-08-23T05:34:35.194Z,14.37
2018-08-23T05:37:09.099Z,14.57
2018-08-23T05:39:50.859Z,13.60
2018-08-23T05:42:31.090Z,12.13
2018-08-23T05:45:02.435Z,11.40
2018-08-23T05:47:34.314Z,12.43
2018-08-23T05:50:05.627Z,16.37
2018-08-23T05:52:39.538Z,16.57
2018-08-23T05:55:11.206Z,25.37
2018-08-23T05:57:40.292Z,13.68
2018-08-23T06:00:12.813Z,16.30
2018-08-23T06:02:43.184Z,16.60
2018-08-23T06:05:14.664Z,16.53
2018-08-23T06:07:46.553Z,14.70
2018-08-23T06:10:17.457Z,21.52
2018-08-23T06:12:51.264Z,12.70
2018-08-23T06:15:22.077Z,12.73
2018-08-23T06:17:52.030Z,14.70
2018-08-23T06:20:22.948Z,17.12
2018-08-23T06:22:53.101Z,13.13
2018-08-23T06:25:24.362Z,14.25
2018-08-23T06:27:55.835Z,18.40
2018-08-23T06:30:25.737Z,17.35
2018-08-23T06:33:05.009Z,20.93
2018-08-23T06:35:34.347Z,18.80
2018-08-23T06:38:03.216Z,20.70
2018-08-23T06:40:31.684Z,14.25
2018-08-23T06:43:02.961Z,17.23
2018-08-23T06:45:31.442Z,18.30
2018-08-23T06:48:01.028Z,17.43
2018-08-23T06:50:29.445Z,14.78
2018-08-23T06:52:57.912Z,16.15
2018-08-23T06:55:31.549Z,13.87
2018-08-23T06:58:02.818Z,17.80
2018-08-23T07:00:31.723Z,18.70
2018-08-23T07:03:00.095Z,23.60
2018-08-23T07:05:28.546Z,14.60
2018-08-23T07:07:56.887Z,14.20
2018-08-23T07:10:25.343Z,14.13
2018-08-23T07:12:56.422Z,22.50
2018-08-23T07:15:25.654Z,16.27
2018-08-23T07:17:54.155Z,21.27
2018-08-23T07:20:22.548Z,15.15
2018-08-23T07:22:50.966Z,13.27
2018-08-23T07:25:19.554Z,13.17
2018-08-23T07:27:47.988Z,11.90
2018-08-23T07:30:18.611Z,17.57
2018-08-23T07:32:48.699Z,17.33
2018-08-23T07:38:07.457Z,16.90
2018-08-23T07:40:36.049Z,14.50
2018-08-23T07:43:05.284Z,13.00
2018-08-23T07:45:34.367Z,11.60
2018-08-23T07:48:03.253Z,12.80
2018-08-23T07:50:32.182Z,14.03
2018-08-23T07:53:01.216Z,22.20
2018-08-23T07:55:30.503Z,17.50
2018-08-23T07:57:58.961Z,16.53
2018-08-23T08:00:32.348Z,19.57
2018-08-23T08:03:02.056Z,15.78
2018-08-23T08:05:32.174Z,14.25
2018-08-23T08:08:00.603Z,20.13
2018-08-23T08:10:34.896Z,17.50
2018-08-23T08:13:03.492Z,17.37
2018-08-23T08:15:31.903Z,17.10
2018-08-23T08:18:08.454Z,25.40
2018-08-23T08:20:37.006Z,20.92
2018-08-23T08:23:06.525Z,15.33
2018-08-23T08:25:34.993Z,19.83
2018-08-23T08:28:04.441Z,19.57
2018-08-23T08:30:41.280Z,15.90
2018-08-23T08:33:11.643Z,19.80
2018-08-23T08:35:52.220Z,15.23
2018-08-23T08:38:20.742Z,16.73
2018-08-23T08:40:52.408Z,13.30
2018-08-23T08:43:20.936Z,16.15
2018-08-23T08:45:53.613Z,14.73
2018-08-23T08:48:26.798Z,14.10
2018-08-23T08:51:11.866Z,18.53
2018-08-23T08:53:41.727Z,19.15
2018-08-23T08:56:11.934Z,14.80
2018-08-23T08:58:42.827Z,14.03
2018-08-23T09:01:12.344Z,21.40
2018-08-23T09:03:40.828Z,20.23
2018-08-23T09:06:10.973Z,12.63
2018-08-23T09:08:39.784Z,12.90
2018-08-23T09:11:08.625Z,15.93
2018-08-23T09:13:42.629Z,13.20
2018-08-23T09:16:14.983Z,17.73
2018-08-23T09:19:00.030Z,14.80
2018-08-23T09:21:39.651Z,13.03
2018-08-23T09:24:24.453Z,13.70
2018-08-23T09:26:53.731Z,18.60
2018-08-23T09:29:33.360Z,19.83
2018-08-23T09:32:43.620Z,12.77
2018-08-23T09:35:13.388Z,13.70
2018-08-23T09:43:02.359Z,15.33
2018-08-23T09:45:35.222Z,14.73
2018-08-23T09:48:03.997Z,13.43
2018-08-23T09:50:32.429Z,16.85
2018-08-23T09:53:00.860Z,15.50
2018-08-23T09:55:32.183Z,14.30
2018-08-23T09:58:00.777Z,18.17
2018-08-23T10:00:34.548Z,18.37
2018-08-23T10:03:08.157Z,16.10
2018-08-23T10:05:47.422Z,14.27
2018-08-23T10:08:21.864Z,15.80
2018-08-23T10:10:55.495Z,15.67
2018-08-23T10:13:29.213Z,16.90
2018-08-23T10:16:03.075Z,14.50
2018-08-23T10:18:36.857Z,15.63
2018-08-23T10:21:05.384Z,15.60
2018-08-23T10:23:34.276Z,15.53
2018-08-23T10:26:08.100Z,16.42
2018-08-23T10:28:41.835Z,16.13
2018-08-23T10:31:10.393Z,16.37
2018-08-23T10:33:38.845Z,14.77
2018-08-23T10:36:07.373Z,11.77
2018-08-23T10:38:35.788Z,12.57
2018-08-23T10:41:05.968Z,11.60
2018-08-23T10:43:40.329Z,9.40
2018-08-23T10:46:08.786Z,9.27
2018-08-23T10:48:40.028Z,7.97
2018-08-23T10:51:08.546Z,8.40
2018-08-23T10:53:37.144Z,9.17
2018-08-23T10:56:05.620Z,7.80
2018-08-23T10:58:34.105Z,9.67
2018-08-23T11:01:02.654Z,8.97
2018-08-23T11:03:31.016Z,7.40
2018-08-23T11:05:59.415Z,7.23
2018-08-23T11:08:31.465Z,5.57
2018-08-23T11:11:05.649Z,9.80
2018-08-23T11:13:40.469Z,9.90
2018-08-23T11:18:54.682Z,6.27
2018-08-23T11:21:23.400Z,5.80
2018-08-23T11:23:51.788Z,5.90
2018-08-23T11:26:21.954Z,8.60
2018-08-23T11:28:50.894Z,6.47
2018-08-23T11:31:24.558Z,8.93
2018-08-23T11:33:53.249Z,7.80
2018-08-23T11:36:21.757Z,17.67
2018-08-23T11:38:51.075Z,6.97
2018-08-23T11:41:20.865Z,6.13
2018-08-23T11:43:51.230Z,7.50
2018-08-23T11:46:21.303Z,5.90
2018-08-23T11:48:50.596Z,6.83
2018-08-23T11:51:20.357Z,6.57
2018-08-23T11:53:49.432Z,7.37
2018-08-23T11:56:18.504Z,7.40
2018-08-23T11:58:46.991Z,7.83
2018-08-23T12:01:16.812Z,9.00
2018-08-23T12:03:45.825Z,8.03
2018-08-23T12:06:16.262Z,7.93
2018-08-23T12:08:45.390Z,9.47
2018-08-23T12:11:14.429Z,6.97
2018-08-23T12:13:47.452Z,8.20
2018-08-23T12:16:15.886Z,8.80
2018-08-23T12:18:44.834Z,7.87
2018-08-23T12:21:13.913Z,7.70
2018-08-23T12:23:42.310Z,8.70
2018-08-23T12:26:10.837Z,7.97
2018-08-23T12:28:44.463Z,7.03
2018-08-23T12:31:14.057Z,8.33
2018-08-23T12:33:43.473Z,8.37
2018-08-23T12:36:12.312Z,9.33
2018-08-23T12:38:46.109Z,7.67
2018-08-23T12:41:19.864Z,7.90
2018-08-23T12:43:50.907Z,7.80
2018-08-23T12:46:20.298Z,7.63
2018-08-23T12:48:53.623Z,7.63
2018-08-23T12:51:22.152Z,7.13
2018-08-23T12:53:50.565Z,7.27
2018-08-23T12:56:19.423Z,7.53
2018-08-23T12:58:48.630Z,7.60
2018-08-23T13:01:17.638Z,6.67
2018-08-23T13:03:46.904Z,6.30
2018-08-23T13:06:15.317Z,7.63
2018-08-23T13:08:43.816Z,7.60
2018-08-23T13:11:14.763Z,7.53
2018-08-23T13:13:43.130Z,7.37
2018-08-23T13:16:11.595Z,6.50
2018-08-23T13:18:41.186Z,7.43
2018-08-23T13:21:10.066Z,7.17
2018-08-23T13:23:42.682Z,7.17
2018-08-23T13:26:11.608Z,6.67
2018-08-23T13:28:41.502Z,6.10
2018-08-23T13:31:09.913Z,6.47
2018-08-23T13:33:38.361Z,6.13
2018-08-23T13:36:06.896Z,4.40
2018-08-23T13:38:36.069Z,8.30
2018-08-23T13:41:05.486Z,5.23
2018-08-23T13:43:34.187Z,5.90
2018-08-23T13:46:02.672Z,5.00
2018-08-23T13:48:31.160Z,4.07
2018-08-23T13:50:59.518Z,3.33
2018-08-23T13:53:28.004Z,3.05
2018-08-23T13:55:57.092Z,3.67
2018-08-23T13:58:25.490Z,6.10
2018-08-23T14:00:54.069Z,3.20
2018-08-23T14:03:22.524Z,3.43
2018-08-23T14:05:51.125Z,2.67
2018-08-23T14:08:19.578Z,3.20
2018-08-23T14:10:48.512Z,2.80
2018-08-23T14:13:17.264Z,4.87
2018-08-23T14:15:51.605Z,2.70
2018-08-23T14:18:20.076Z,3.03
2018-08-23T14:20:49.239Z,3.00
2018-08-23T14:23:18.930Z,3.37
2018-08-23T14:25:49.613Z,2.83
2018-08-23T14:28:18.152Z,2.73
2018-08-23T14:30:46.631Z,3.50
2018-08-23T14:33:16.078Z,3.00
2018-08-23T14:35:44.530Z,3.00
2018-08-23T14:38:15.714Z,2.80
2018-08-23T14:40:45.257Z,2.70
2018-08-23T14:43:13.906Z,3.00
2018-08-23T14:45:44.101Z,3.10
2018-08-23T14:48:15.095Z,3.33
2018-08-23T14:50:44.647Z,3.43
2018-08-23T14:53:17.884Z,5.12
2018-08-23T14:55:51.784Z,3.03
2018-08-23T14:58:20.232Z,5.70
2018-08-23T15:00:48.710Z,3.33
2018-08-23T15:03:18.077Z,3.40
2018-08-23T15:05:46.686Z,4.47
2018-08-23T15:08:16.843Z,3.27
2018-08-23T15:10:45.368Z,4.50
2018-08-23T15:13:14.239Z,4.00
2018-08-23T15:15:48.550Z,3.20
2018-08-23T15:18:20.087Z,3.50
2018-08-23T15:20:48.976Z,2.73
2018-08-23T15:23:18.407Z,3.00
2018-08-23T15:25:48.871Z,5.03
2018-08-23T15:28:19.559Z,2.90
2018-08-23T15:30:48.429Z,3.47
2018-08-23T15:33:16.972Z,3.57
2018-08-23T15:35:45.380Z,4.73
2018-08-23T15:38:14.310Z,3.80
2018-08-23T15:40:42.928Z,3.83
2018-08-23T15:43:11.386Z,3.40
2018-08-23T15:48:19.845Z,3.93
2018-08-23T15:50:48.952Z,3.83
2018-08-23T15:53:17.379Z,3.73
2018-08-23T15:55:46.361Z,3.72
2018-08-23T16:00:59.799Z,3.80
2018-08-23T16:03:28.418Z,3.90
2018-08-23T16:05:59.103Z,4.53
2018-08-23T16:08:27.717Z,3.50
2018-08-23T16:10:56.725Z,3.80
2018-08-23T16:13:25.127Z,3.63
2018-08-23T16:18:07.137Z,3.98
2018-08-23T16:20:40.929Z,3.83
2018-08-23T16:23:10.331Z,3.60
2018-08-23T16:25:41.788Z,3.60
2018-08-23T16:28:10.301Z,3.73
2018-08-23T16:30:42.239Z,3.80
2018-08-23T16:33:11.254Z,3.47
2018-08-23T16:35:39.895Z,3.80
2018-08-23T16:38:08.473Z,5.20
2018-08-23T16:40:37.840Z,3.97
2018-08-23T16:43:06.322Z,3.75
2018-08-23T16:45:34.871Z,3.17
2018-08-23T16:48:03.779Z,5.30
2018-08-23T16:50:32.280Z,3.87
2018-08-23T16:53:00.924Z,3.80
2018-08-23T16:55:29.629Z,8.87
2018-08-23T16:57:58.635Z,7.17
2018-08-23T17:00:27.008Z,3.47
2018-08-23T17:02:55.558Z,3.00
2018-08-23T17:05:25.630Z,3.60
2018-08-23T17:07:54.053Z,3.40
2018-08-23T17:10:23.409Z,4.10
2018-08-23T17:12:52.744Z,4.43
2018-08-23T17:15:22.328Z,6.30
2018-08-23T17:17:55.417Z,3.47
2018-08-23T17:20:23.802Z,3.87
2018-08-23T17:22:52.224Z,3.70
2018-08-23T17:25:21.752Z,3.93
2018-08-23T17:27:52.022Z,3.80
2018-08-23T17:30:21.472Z,4.20
2018-08-23T17:32:49.839Z,6.93
2018-08-23T17:35:21.895Z,3.57
2018-08-23T17:37:50.438Z,7.20
2018-08-23T17:40:21.236Z,3.60
2018-08-23T17:42:49.925Z,3.72
2018-08-23T17:45:18.384Z,3.93
2018-08-23T17:47:50.810Z,9.50
2018-08-23T17:50:20.815Z,5.03
2018-08-23T17:52:50.147Z,3.77
2018-08-23T17:55:18.640Z,3.60
2018-08-23T17:57:49.426Z,3.77
2018-08-23T18:00:20.145Z,3.60
2018-08-23T18:02:49.006Z,8.98
2018-08-23T18:05:18.011Z,4.17
2018-08-23T18:07:46.894Z,4.27
2018-08-23T18:10:15.714Z,5.20
2018-08-23T18:12:46.984Z,3.60
2018-08-23T18:15:15.581Z,3.93
2018-08-23T18:17:44.338Z,3.93
2018-08-23T18:20:15.605Z,5.90
2018-08-23T18:22:44.193Z,3.50
2018-08-23T18:25:13.528Z,3.70
2018-08-23T18:27:44.099Z,3.63
2018-08-23T18:30:13.538Z,4.30
2018-08-23T18:32:44.315Z,3.97
2018-08-23T18:35:12.773Z,8.40
2018-08-23T18:37:42.021Z,3.70
2018-08-23T18:40:11.046Z,5.03
2018-08-23T18:42:40.287Z,3.50
2018-08-23T18:45:10.146Z,4.40
2018-08-23T18:47:39.757Z,3.45
2018-08-23T18:50:21.765Z,4.42
2018-08-23T18:58:43.710Z,4.35
2018-08-23T19:04:09.855Z,5.20
2018-08-23T19:06:43.802Z,4.40
2018-08-23T19:17:28.702Z,9.83
2018-08-23T19:19:59.359Z,5.47
2018-08-23T19:22:29.558Z,5.07
2018-08-23T19:25:02.393Z,13.13
2018-08-23T19:27:32.996Z,9.00
2018-08-23T19:30:01.699Z,10.03
2018-08-23T19:32:31.165Z,8.23
2018-08-23T19:35:06.675Z,12.13
2018-08-23T19:37:35.705Z,3.63
2018-08-23T19:40:11.358Z,3.67
2018-08-23T19:42:44.179Z,13.60
2018-08-23T19:45:13.965Z,11.20
2018-08-23T20:02:01.555Z,4.33
2018-08-23T20:04:33.125Z,6.23
2018-08-23T20:07:02.955Z,4.28
2018-08-23T20:13:15.712Z,4.60
2018-08-23T20:18:37.234Z,6.63
2018-08-23T20:21:10.679Z,4.80
2018-08-23T20:23:43.459Z,4.10
2018-08-23T20:26:12.495Z,5.20
2018-08-23T20:28:43.812Z,3.47
2018-08-23T20:31:19.016Z,4.53
2018-08-23T20:33:50.365Z,6.83
2018-08-23T20:36:21.210Z,5.72
2018-08-23T20:38:52.440Z,7.33
2018-08-23T20:41:23.563Z,6.60
2018-08-23T20:43:55.440Z,3.97
2018-08-23T20:46:27.445Z,6.33
2018-08-23T20:48:59.381Z,4.85
2018-08-23T20:51:30.240Z,5.77
2018-08-23T20:54:02.093Z,4.70
2018-08-23T20:56:30.980Z,4.80
2018-08-23T20:59:05.449Z,5.00
2018-08-23T21:01:39.872Z,7.67
2018-08-23T21:04:14.495Z,5.72
2018-08-23T21:06:44.935Z,5.47
2018-08-23T21:09:17.000Z,5.40
2018-08-23T21:11:49.427Z,6.63
2018-08-23T21:14:18.516Z,5.50
2018-08-23T21:16:47.489Z,6.35
2018-08-23T21:19:23.072Z,9.20
2018-08-23T21:21:51.564Z,5.95
2018-08-23T21:24:21.327Z,6.10
2018-08-23T21:26:55.079Z,4.80
2018-08-23T21:29:25.547Z,5.00
2018-08-23T21:31:54.580Z,6.60
2018-08-23T21:34:23.005Z,11.03
2018-08-23T21:36:53.804Z,5.57
2018-08-23T21:39:23.274Z,14.50
2018-08-23T21:41:53.609Z,5.90
2018-08-23T21:44:23.804Z,8.23
2018-08-23T21:46:52.781Z,4.70
2018-08-23T21:49:25.754Z,7.27
2018-08-23T21:51:54.245Z,4.97
2018-08-23T21:54:22.726Z,5.00
2018-08-23T21:56:52.025Z,9.00
2018-08-23T21:59:21.486Z,8.03
2018-08-23T22:01:55.183Z,7.90
2018-08-23T22:04:27.790Z,5.33
2018-08-23T22:07:02.789Z,7.83
2018-08-23T22:09:34.764Z,8.90
2018-08-23T22:12:07.480Z,7.67
2018-08-23T22:14:45.107Z,8.30
2018-08-23T22:17:17.048Z,6.43
2018-08-23T22:19:46.310Z,5.90
2018-08-23T22:22:17.042Z,8.00
2018-08-23T22:24:49.784Z,7.13
2018-08-23T22:27:19.629Z,7.73
2018-08-23T22:29:49.277Z,6.80
2018-08-23T22:32:18.877Z,5.72
2018-08-23T22:34:49.733Z,5.37
2018-08-23T22:37:24.073Z,6.00
2018-08-23T22:39:53.542Z,6.80
2018-08-23T22:42:34.689Z,5.30
2018-08-23T22:45:03.942Z,6.47
2018-08-23T22:47:38.414Z,6.07
2018-08-23T22:50:09.955Z,7.17
2018-08-23T22:52:39.682Z,5.50
2018-08-23T22:55:08.204Z,5.33
2018-08-23T22:57:39.929Z,5.23
2018-08-23T23:00:10.722Z,5.40
2018-08-23T23:02:40.183Z,4.45
2018-08-23T23:05:09.305Z,5.13
2018-08-23T23:07:38.049Z,5.40
2018-08-23T23:10:08.983Z,4.60
2018-08-23T23:12:37.592Z,5.80
2018-08-23T23:15:11.975Z,5.40
2018-08-23T23:17:44.342Z,8.87
2018-08-23T23:20:13.899Z,5.20
2018-08-23T23:22:43.751Z,6.17
2018-08-23T23:25:16.833Z,5.67
2018-08-23T23:27:48.619Z,6.93
2018-08-23T23:30:21.346Z,5.90
2018-08-23T23:32:52.022Z,9.13
2018-08-23T23:35:21.795Z,5.92
2018-08-23T23:37:52.449Z,4.55
2018-08-23T23:40:26.125Z,7.33
2018-08-23T23:42:59.590Z,6.13
2018-08-23T23:45:29.384Z,9.67
2018-08-23T23:48:01.427Z,5.10
2018-08-23T23:50:33.732Z,5.27
2018-08-23T23:53:05.419Z,5.00
2018-08-23T23:55:38.519Z,8.00
2018-08-23T23:58:10.764Z,5.20
